Time;durP1;ratioP1;P1;durP2;ratioP2;P2;SDS_P1;SDS_P2;PMS_P1;PMS_P2;Temp;Humidity;BMP_temperature;BMP_pressure;BME280_temperature;BME280_humidity;BME280_pressure;Samples;Min_cycle;Max_cycle;Signal;HPM_P1;HPM_P2
2022/10/12 00:01:30;;;;;;;14.00;8.90;;;;;;;10.82;92.18;98816.23;1769865;80;21499;-58
2022/10/12 00:03:57;;;;;;;15.13;9.75;;;;;;;10.83;91.93;98815.13;1767842;80;20970;-58
2022/10/12 00:06:24;;;;;;;11.53;8.90;;;;;;;10.77;92.03;98814.09;1762514;80;21030;-59
2022/10/12 00:08:52;;;;;;;13.35;8.50;;;;;;;10.75;91.85;98818.91;1772361;80;20976;-58
2022/10/12 00:11:25;;;;;;;10.50;8.20;;;;;;;10.73;91.96;98808.48;1762730;80;20998;-59
2022/10/12 00:13:53;;;;;;;10.82;8.25;;;;;;;10.71;91.82;98815.18;1769355;80;21746;-59
2022/10/12 00:16:22;;;;;;;14.93;8.65;;;;;;;10.67;91.70;98813.56;1752393;80;20931;-59
2022/10/12 00:18:54;;;;;;;11.85;8.00;;;;;;;10.63;91.65;98813.04;1777741;80;20983;-59
2022/10/12 00:21:21;;;;;;;9.93;7.55;;;;;;;10.60;91.56;98817.63;1751766;80;21149;-59
2022/10/12 00:23:48;;;;;;;9.88;7.72;;;;;;;10.56;91.48;98814.66;1764961;80;20963;-59
2022/10/12 00:26:19;;;;;;;12.05;7.90;;;;;;;10.52;91.26;98822.17;1765072;80;21063;-59
2022/10/12 00:28:46;;;;;;;9.25;8.00;;;;;;;10.49;91.35;98823.52;1773872;80;21395;-59
2022/10/12 00:31:17;;;;;;;10.98;7.60;;;;;;;10.47;91.45;98822.98;1759482;80;21451;-59
2022/10/12 00:33:44;;;;;;;13.08;7.12;;;;;;;10.45;91.52;98821.11;1768112;80;20979;-58
2022/10/12 00:36:26;;;;;;;11.08;7.87;;;;;;;10.43;91.66;98824.59;1771224;80;20944;-60
2022/10/12 00:38:55;;;;;;;9.20;7.28;;;;;;;10.41;91.54;98829.95;1769985;80;21415;-60
2022/10/12 00:41:25;;;;;;;12.05;7.78;;;;;;;10.37;91.47;98828.33;1772816;80;21389;-60
2022/10/12 00:43:53;;;;;;;11.38;7.90;;;;;;;10.35;91.39;98829.14;1751586;80;21047;-60
2022/10/12 00:46:43;;;;;;;12.00;8.00;;;;;;;10.29;91.52;98827.55;1775497;80;20917;-60
2022/10/12 00:49:23;;;;;;;11.22;7.50;;;;;;;10.23;91.64;98829.94;1770514;80;21031;-60
2022/10/12 00:51:59;;;;;;;11.55;7.15;;;;;;;10.16;91.91;98832.08;1764858;80;21263;-60
2022/10/12 00:54:29;;;;;;;10.18;7.22;;;;;;;10.11;91.99;98832.04;1760802;80;20905;-58
2022/10/12 00:56:56;;;;;;;10.08;7.20;;;;;;;10.04;92.21;98826.14;1759329;80;20935;-58
2022/10/12 00:59:33;;;;;;;9.65;7.10;;;;;;;9.98;92.39;98828.56;1759310;80;20980;-58
2022/10/12 01:01:59;;;;;;;12.15;7.78;;;;;;;9.92;92.62;98829.60;1771561;80;21002;-58
2022/10/12 01:04:26;;;;;;;10.35;7.25;;;;;;;9.85;92.81;98827.72;1767007;80;22000;-57
2022/10/12 01:06:53;;;;;;;10.65;7.95;;;;;;;9.79;93.01;98824.25;1755956;80;20899;-58
2022/10/12 01:09:20;;;;;;;11.68;6.83;;;;;;;9.73;93.08;98832.53;1764807;80;20943;-59
2022/10/12 01:11:48;;;;;;;12.78;7.85;;;;;;;9.64;93.37;98832.23;1765011;80;21472;-59
2022/10/12 01:14:14;;;;;;;12.30;8.33;;;;;;;9.55;93.60;98829.80;1766423;80;20895;-59
2022/10/12 01:17:29;;;;;;;11.35;7.60;;;;;;;9.46;93.93;98832.19;1766843;80;21483;-59
2022/10/12 01:20:29;;;;;;;10.08;7.65;;;;;;;9.40;94.21;98829.21;1770365;80;21004;-58
2022/10/12 01:23:19;;;;;;;14.35;8.05;;;;;;;9.28;94.44;98830.52;1769459;80;20992;-60
2022/10/12 01:26:22;;;;;;;9.83;7.40;;;;;;;9.14;94.74;98829.39;1767943;80;20860;-59
2022/10/12 01:29:06;;;;;;;10.98;7.45;;;;;;;9.05;95.07;98833.07;1765814;80;21352;-59
2022/10/12 01:31:49;;;;;;;10.70;8.55;;;;;;;8.94;95.44;98824.73;1757071;80;25173;-60
2022/10/12 01:34:36;;;;;;;12.00;8.40;;;;;;;8.82;95.73;98829.47;1766720;80;21023;-58
2022/10/12 01:37:43;;;;;;;13.08;8.55;;;;;;;8.73;96.07;98830.50;1769921;80;21377;-58
2022/10/12 01:40:21;;;;;;;11.80;8.00;;;;;;;8.64;96.33;98837.39;1757093;80;21022;-58
2022/10/12 01:42:48;;;;;;;8.85;7.30;;;;;;;8.54;96.57;98836.50;1759568;80;21098;-59
2022/10/12 01:45:18;;;;;;;11.28;7.72;;;;;;;8.47;96.78;98839.92;1767019;80;21298;-58
2022/10/12 01:47:48;;;;;;;11.88;8.10;;;;;;;8.38;96.89;98834.78;1759315;80;20958;-59
2022/10/12 01:50:15;;;;;;;13.08;7.90;;;;;;;8.28;97.09;98837.37;1767035;80;20921;-60
2022/10/12 01:53:10;;;;;;;11.08;7.72;;;;;;;8.20;97.35;98843.41;1763723;80;20917;-60
2022/10/12 01:56:03;;;;;;;12.05;7.90;;;;;;;8.16;97.46;98843.66;1764673;80;21066;-59
2022/10/12 01:58:45;;;;;;;10.98;8.13;;;;;;;8.10;97.46;98843.31;1762268;80;21937;-58
2022/10/12 02:01:27;;;;;;;10.55;8.18;;;;;;;8.04;97.58;98850.20;1767071;80;21057;-58
2022/10/12 02:04:28;;;;;;;11.68;8.43;;;;;;;7.92;97.81;98851.70;1757001;80;21475;-58
2022/10/12 02:07:03;;;;;;;11.35;8.50;;;;;;;7.85;98.15;98852.95;1751402;80;20943;-58
2022/10/12 02:09:32;;;;;;;12.88;8.98;;;;;;;7.81;98.46;98847.33;1752724;80;21505;-62
2022/10/12 02:12:09;;;;;;;12.47;8.83;;;;;;;7.80;98.55;98855.56;1763137;80;21121;-60
2022/10/12 02:14:53;;;;;;;11.60;9.05;;;;;;;7.76;98.84;98851.27;1751675;80;21637;-60
2022/10/12 02:17:21;;;;;;;10.25;8.50;;;;;;;7.77;99.10;98856.89;1729941;82;21084;-60
2022/10/12 02:19:58;;;;;;;12.35;8.65;;;;;;;7.80;99.22;98863.55;1755718;80;21016;-61
2022/10/12 02:22:33;;;;;;;11.53;8.48;;;;;;;7.75;99.11;98861.64;1775592;80;21075;-61
2022/10/12 02:25:02;;;;;;;12.93;8.43;;;;;;;7.70;99.16;98862.92;1761385;80;21130;-60
2022/10/12 02:27:29;;;;;;;11.60;8.00;;;;;;;7.64;99.08;98865.27;1772585;80;20925;-61
2022/10/12 02:29:55;;;;;;;15.05;8.45;;;;;;;7.54;99.16;98865.14;1773616;80;20938;-62
2022/10/12 02:32:36;;;;;;;11.05;8.70;;;;;;;7.48;99.49;98870.16;1726573;80;20953;-60
2022/10/12 02:35:12;;;;;;;12.55;8.30;;;;;;;7.49;99.69;98869.08;1768966;80;20983;-65
2022/10/12 02:37:49;;;;;;;13.18;8.30;;;;;;;7.53;99.75;98871.03;1772553;80;21257;-59
2022/10/12 02:40:32;;;;;;;10.28;7.92;;;;;;;7.58;99.69;98875.61;1758617;80;20923;-60
2022/10/12 02:43:17;;;;;;;14.15;8.85;;;;;;;7.60;99.18;98872.16;1759452;80;20955;-60
2022/10/12 02:45:44;;;;;;;10.75;8.40;;;;;;;7.58;98.87;98879.06;1758943;80;20971;-58
2022/10/12 02:48:14;;;;;;;18.02;7.95;;;;;;;7.55;98.77;98878.24;1764859;80;20990;-58
2022/10/12 02:50:41;;;;;;;14.23;8.58;;;;;;;7.53;98.53;98884.36;1765042;80;21133;-59
2022/10/12 02:53:08;;;;;;;10.82;8.30;;;;;;;7.52;98.57;98885.92;1738971;80;20923;-59
2022/10/12 02:55:50;;;;;;;11.93;7.87;;;;;;;7.52;98.41;98892.06;1767506;80;20920;-59
2022/10/12 02:58:20;;;;;;;11.05;8.25;;;;;;;7.50;98.19;98888.03;1773469;80;20947;-58
2022/10/12 03:00:46;;;;;;;13.85;8.70;;;;;;;7.46;97.84;98887.73;1753232;81;20896;-58
2022/10/12 03:03:13;;;;;;;12.30;8.70;;;;;;;7.40;97.41;98901.23;1751654;80;21125;-58
2022/10/12 03:05:39;;;;;;;12.33;8.75;;;;;;;7.31;97.09;98898.72;1759404;80;20996;-58
2022/10/12 03:08:06;;;;;;;11.08;8.15;;;;;;;7.24;96.90;98898.09;1768019;80;21007;-59
2022/10/12 03:10:35;;;;;;;11.22;7.90;;;;;;;7.15;96.72;98895.58;1768179;80;20888;-59
2022/10/12 03:13:03;;;;;;;11.70;7.85;;;;;;;7.08;96.53;98894.42;1757803;80;20978;-59
2022/10/12 03:15:30;;;;;;;11.43;7.72;;;;;;;7.00;96.55;98898.02;1759617;80;21678;-59
2022/10/12 03:17:58;;;;;;;11.60;8.25;;;;;;;6.96;96.70;98899.56;1759522;80;21477;-59
2022/10/12 03:20:26;;;;;;;11.43;8.30;;;;;;;6.93;96.61;98899.53;1770573;80;20933;-59
2022/10/12 03:22:53;;;;;;;10.88;8.40;;;;;;;6.87;96.48;98892.02;1760451;80;21414;-59
2022/10/12 03:25:19;;;;;;;9.43;7.40;;;;;;;6.83;96.42;98896.19;1769484;80;20999;-59
2022/10/12 03:27:46;;;;;;;11.33;8.33;;;;;;;6.80;96.53;98895.37;1757142;80;21219;-59
2022/10/12 03:30:13;;;;;;;9.43;8.20;;;;;;;6.80;96.58;98898.55;1764950;80;20939;-59
2022/10/12 03:32:40;;;;;;;11.57;7.90;;;;;;;6.77;96.57;98893.19;1758400;80;20974;-59
2022/10/12 03:35:08;;;;;;;13.80;8.48;;;;;;;6.71;96.63;98894.14;1765107;80;21387;-59
2022/10/12 03:37:34;;;;;;;9.53;8.20;;;;;;;6.68;97.00;98893.83;1751732;80;21408;-59
2022/10/12 03:40:01;;;;;;;12.78;8.28;;;;;;;6.64;96.96;98897.49;1764990;80;21160;-59
2022/10/12 03:42:28;;;;;;;9.75;7.50;;;;;;;6.63;97.04;98895.90;1751725;80;20941;-59
2022/10/12 03:44:54;;;;;;;12.03;7.37;;;;;;;6.60;96.88;98899.55;1766160;80;20888;-59
2022/10/12 03:47:21;;;;;;;10.98;7.33;;;;;;;6.57;96.65;98901.39;1755986;80;21434;-59
2022/10/12 03:49:48;;;;;;;12.13;7.40;;;;;;;6.53;96.34;98902.38;1772787;80;20916;-59
2022/10/12 03:52:14;;;;;;;12.10;7.95;;;;;;;6.48;96.21;98908.95;1766539;80;21894;-59
2022/10/12 03:54:41;;;;;;;11.70;7.62;;;;;;;6.48;96.20;98904.95;1751694;80;20888;-60
2022/10/12 03:57:07;;;;;;;14.15;7.50;;;;;;;6.45;95.79;98905.98;1765027;80;21102;-59
2022/10/12 03:59:34;;;;;;;9.23;7.67;;;;;;;6.40;95.52;98905.89;1751661;81;21066;-62
2022/10/12 04:02:00;;;;;;;10.40;7.58;;;;;;;6.36;95.40;98903.44;1751731;80;21015;-60
2022/10/12 04:04:27;;;;;;;14.28;8.30;;;;;;;6.33;95.34;98907.91;1759701;80;21447;-60
2022/10/12 04:06:53;;;;;;;11.28;7.53;;;;;;;6.26;95.01;98909.39;1773584;80;20946;-60
2022/10/12 04:09:20;;;;;;;11.05;7.25;;;;;;;6.20;95.02;98903.69;1772344;80;20991;-60
2022/10/12 04:11:47;;;;;;;9.90;7.90;;;;;;;6.16;95.26;98907.36;1771824;80;20920;-60
2022/10/12 04:14:14;;;;;;;13.65;7.78;;;;;;;6.16;95.54;98911.87;1772995;80;20877;-60
2022/10/12 04:16:42;;;;;;;18.75;8.50;;;;;;;6.13;95.86;98912.34;1759325;80;21359;-60
2022/10/12 04:19:13;;;;;;;12.13;8.20;;;;;;;6.13;96.16;98907.02;1768914;80;20943;-59
2022/10/12 04:21:41;;;;;;;11.05;8.13;;;;;;;6.12;96.16;98912.07;1759304;80;21107;-60
2022/10/12 04:24:08;;;;;;;10.85;7.70;;;;;;;6.09;96.08;98913.88;1764869;80;20940;-58
2022/10/12 04:26:34;;;;;;;12.30;7.30;;;;;;;6.03;95.74;98921.48;1764846;80;21498;-58
2022/10/12 04:29:03;;;;;;;11.12;7.22;;;;;;;5.97;95.78;98917.92;1751718;80;21509;-59
2022/10/12 04:31:30;;;;;;;14.07;8.10;;;;;;;5.95;95.79;98922.67;1764939;80;20956;-59
2022/10/12 04:33:56;;;;;;;12.93;8.30;;;;;;;5.96;95.72;98921.61;1763328;80;21434;-58
2022/10/12 04:36:24;;;;;;;13.90;7.85;;;;;;;5.97;95.52;98925.08;1768666;80;20945;-58
2022/10/12 04:38:51;;;;;;;15.18;8.58;;;;;;;5.93;95.38;98927.94;1767331;80;21397;-59
2022/10/12 04:41:18;;;;;;;16.85;8.83;;;;;;;5.86;94.91;98930.75;1757148;80;21245;-58
2022/10/12 04:43:45;;;;;;;19.50;9.80;;;;;;;5.74;94.64;98933.93;1766939;80;21405;-59
2022/10/12 04:46:11;;;;;;;14.10;9.40;;;;;;;5.65;94.69;98935.35;1762739;80;20951;-60
2022/10/12 04:48:39;;;;;;;18.60;9.53;;;;;;;5.58;94.72;98939.17;1765022;80;21431;-59
2022/10/12 04:51:05;;;;;;;15.28;10.72;;;;;;;5.52;94.80;98940.40;1765041;80;20877;-58
2022/10/12 04:53:32;;;;;;;19.90;12.55;;;;;;;5.50;94.94;98943.81;1759145;80;21192;-60
2022/10/12 04:56:02;;;;;;;22.55;14.18;;;;;;;5.50;94.91;98949.13;1770253;80;21064;-60
2022/10/12 04:58:29;;;;;;;22.98;16.65;;;;;;;5.48;94.69;98949.89;1769965;80;20904;-60
2022/10/12 05:00:55;;;;;;;26.55;19.55;;;;;;;5.42;94.56;98951.32;1767896;80;21484;-60
2022/10/12 05:03:23;;;;;;;27.02;18.82;;;;;;;5.37;94.63;98950.70;1765633;80;20871;-60
2022/10/12 05:05:49;;;;;;;24.70;15.80;;;;;;;5.37;94.84;98952.02;1759460;80;21077;-60
2022/10/12 05:08:16;;;;;;;20.48;17.27;;;;;;;5.40;95.06;98956.06;1759327;80;20909;-60
2022/10/12 05:10:43;;;;;;;23.05;16.85;;;;;;;5.40;95.20;98952.89;1751729;80;20927;-60
2022/10/12 05:13:10;;;;;;;19.85;14.15;;;;;;;5.39;95.18;98959.78;1751613;81;21553;-60
2022/10/12 05:15:36;;;;;;;17.00;13.28;;;;;;;5.40;95.49;98958.72;1762960;80;20911;-59
2022/10/12 05:18:04;;;;;;;20.85;13.08;;;;;;;5.45;95.52;98960.98;1761055;80;21930;-60
2022/10/12 05:20:31;;;;;;;25.30;12.03;;;;;;;5.48;95.57;98964.50;1772341;80;21688;-60
2022/10/12 05:22:58;;;;;;;20.17;12.28;;;;;;;5.53;95.86;98967.23;1759561;80;20978;-60
2022/10/12 05:25:24;;;;;;;17.30;12.15;;;;;;;5.62;95.97;98968.22;1770142;80;20975;-60
2022/10/12 05:27:51;;;;;;;15.10;11.40;;;;;;;5.70;96.19;98970.53;1771745;80;20959;-59
2022/10/12 05:30:17;;;;;;;17.07;11.35;;;;;;;5.77;96.43;98973.86;1759412;80;21246;-60
2022/10/12 05:32:44;;;;;;;20.12;11.25;;;;;;;5.85;96.74;98978.82;1770542;80;20994;-60
2022/10/12 05:35:12;;;;;;;18.17;9.65;;;;;;;5.93;96.87;98976.62;1759457;80;20935;-60
2022/10/12 05:37:39;;;;;;;14.35;9.45;;;;;;;6.04;97.15;98973.62;1759140;80;20908;-60
2022/10/12 05:40:07;;;;;;;18.48;10.68;;;;;;;6.15;97.70;98973.56;1773670;79;20976;-60
2022/10/12 05:42:35;;;;;;;11.38;9.63;;;;;;;6.30;98.14;98978.37;1766875;80;21182;-59
2022/10/12 05:45:02;;;;;;;13.85;9.83;;;;;;;6.45;98.81;98978.65;1768303;79;21021;-59
2022/10/12 05:47:32;;;;;;;15.68;11.00;;;;;;;6.59;99.24;98979.96;1785428;79;21086;-60
2022/10/12 05:50:01;;;;;;;19.42;10.00;;;;;;;6.73;99.36;98976.45;1783909;79;21198;-60
2022/10/12 05:52:31;;;;;;;16.87;9.73;;;;;;;6.86;99.50;98980.12;1775773;79;20968;-61
2022/10/12 05:54:58;;;;;;;16.75;10.78;;;;;;;7.03;99.76;98990.77;1797994;79;21158;-63
2022/10/12 05:57:29;;;;;;;20.25;14.13;;;;;;;7.16;99.78;98983.24;1784389;79;21014;-62
2022/10/12 05:59:57;;;;;;;22.73;12.05;;;;;;;7.28;99.56;98988.47;1795641;79;21034;-61
2022/10/12 06:02:23;;;;;;;15.18;10.53;;;;;;;7.37;99.57;98987.03;1779602;79;21052;-62
2022/10/12 06:04:50;;;;;;;17.05;9.40;;;;;;;7.49;99.52;98987.70;1777055;79;20948;-61
2022/10/12 06:07:18;;;;;;;15.72;9.98;;;;;;;7.61;99.41;98986.29;1745889;80;21110;-63
2022/10/12 06:09:46;;;;;;;17.07;10.38;;;;;;;7.73;99.29;98991.77;1748235;80;21110;-62
2022/10/12 06:12:15;;;;;;;27.02;11.08;;;;;;;7.87;99.31;98990.86;1755979;80;21503;-61
2022/10/12 06:14:45;;;;;;;18.77;11.20;;;;;;;8.01;98.91;98992.91;1749368;80;21110;-62
2022/10/12 06:17:19;;;;;;;22.77;12.65;;;;;;;8.13;98.37;98987.44;1760758;80;20889;-63
2022/10/12 06:19:47;;;;;;;23.77;13.25;;;;;;;8.20;97.99;98988.86;1759918;80;21186;-61
2022/10/12 06:22:15;;;;;;;20.32;11.25;;;;;;;8.30;97.50;98992.72;1769001;79;20920;-61
2022/10/12 06:24:44;;;;;;;16.50;11.03;;;;;;;8.37;97.02;98993.33;1757532;78;21023;-61
2022/10/12 06:27:13;;;;;;;24.55;17.57;;;;;;;8.44;96.63;98988.08;1793919;78;20909;-61
2022/10/12 06:29:45;;;;;;;23.35;11.95;;;;;;;8.51;96.39;98993.20;1790916;79;21055;-61
2022/10/12 06:32:20;;;;;;;19.62;12.03;;;;;;;8.60;96.20;98987.68;1774736;78;22360;-58
2022/10/12 06:34:51;;;;;;;23.00;12.75;;;;;;;8.71;96.06;98988.06;1723495;81;21444;-62
2022/10/12 06:37:17;;;;;;;21.42;12.20;;;;;;;8.78;95.69;98996.68;1769202;79;21139;-60
2022/10/12 06:39:44;;;;;;;22.42;11.80;;;;;;;8.89;95.45;98994.36;1752316;79;21070;-59
2022/10/12 06:42:12;;;;;;;19.30;12.18;;;;;;;9.01;95.28;98995.52;1750265;80;21197;-61
2022/10/12 06:44:43;;;;;;;17.40;11.05;;;;;;;9.10;94.64;98997.47;1769759;79;21199;-60
2022/10/12 06:47:14;;;;;;;17.57;11.50;;;;;;;9.22;94.21;98995.42;1766394;79;21018;-62
2022/10/12 06:49:41;;;;;;;23.80;11.90;;;;;;;9.35;93.99;98996.30;1783780;78;21470;-61
2022/10/12 06:52:08;;;;;;;18.87;12.43;;;;;;;9.45;93.57;98996.36;1730877;82;21039;-61
2022/10/12 06:54:35;;;;;;;20.10;12.43;;;;;;;9.55;92.92;99004.45;1695363;82;21106;-61
2022/10/12 06:57:05;;;;;;;17.27;12.10;;;;;;;9.61;92.21;98998.05;1709082;83;21025;-60
2022/10/12 06:59:32;;;;;;;19.87;11.28;;;;;;;9.68;91.69;99004.50;1715817;82;21027;-62
2022/10/12 07:02:01;;;;;;;19.32;11.80;;;;;;;9.76;91.14;98997.86;1723494;82;21047;-61
2022/10/12 07:04:28;;;;;;;17.20;11.15;;;;;;;9.86;91.03;99000.06;1716050;82;21051;-59
2022/10/12 07:06:54;;;;;;;16.97;11.65;;;;;;;9.98;90.84;98999.32;1711037;82;21059;-58
2022/10/12 07:09:23;;;;;;;14.05;10.63;;;;;;;10.08;90.14;99006.59;1775830;80;21060;-58
2022/10/12 07:11:51;;;;;;;21.00;11.03;;;;;;;10.14;89.30;99002.87;1774433;80;20868;-59
2022/10/12 07:14:19;;;;;;;15.30;10.63;;;;;;;10.19;88.73;98999.69;1775005;80;21049;-59
2022/10/12 07:16:46;;;;;;;15.78;10.78;;;;;;;10.26;88.02;99003.45;1788804;79;20973;-61
2022/10/12 07:19:17;;;;;;;14.23;9.58;;;;;;;10.32;87.46;98999.70;1790068;79;21450;-60
2022/10/12 07:21:47;;;;;;;13.65;9.18;;;;;;;10.36;86.83;99000.81;1786363;79;21232;-58
2022/10/12 07:24:19;;;;;;;13.32;9.55;;;;;;;10.40;85.99;98999.20;1781152;79;21387;-59
2022/10/12 07:26:45;;;;;;;16.12;9.48;;;;;;;10.45;85.71;98999.22;1797217;79;20889;-60
2022/10/12 07:29:15;;;;;;;14.83;9.08;;;;;;;10.53;85.25;99005.38;1800634;79;20976;-61
2022/10/12 07:31:47;;;;;;;16.82;10.10;;;;;;;10.61;84.55;99002.19;1759607;80;20990;-60
2022/10/12 07:34:16;;;;;;;15.23;10.13;;;;;;;10.66;84.21;98995.50;1785113;79;21738;-58
2022/10/12 07:36:50;;;;;;;17.87;9.85;;;;;;;10.73;83.81;98997.92;1801285;79;24804;-59
2022/10/12 07:39:20;;;;;;;15.95;9.75;;;;;;;10.81;83.33;98996.84;1791614;79;21067;-59
2022/10/12 07:41:57;;;;;;;19.90;10.68;;;;;;;10.89;82.87;98999.53;1789651;79;20900;-59
2022/10/12 07:44:30;;;;;;;16.87;10.50;;;;;;;10.98;82.56;98998.73;1782277;79;20872;-58
2022/10/12 07:46:57;;;;;;;18.92;10.28;;;;;;;11.08;82.01;98993.91;1742672;80;21325;-59
2022/10/12 07:49:24;;;;;;;21.55;12.03;;;;;;;11.16;81.94;98993.38;1789676;79;21011;-60
2022/10/12 07:51:51;;;;;;;19.85;13.43;;;;;;;11.28;81.56;98997.11;1781916;79;21082;-60
2022/10/12 07:54:17;;;;;;;23.50;11.60;;;;;;;11.39;81.28;99002.19;1776621;79;21570;-59
2022/10/12 07:56:45;;;;;;;23.05;12.40;;;;;;;11.49;80.78;99009.42;1779329;79;20964;-59
2022/10/12 07:59:16;;;;;;;24.30;12.33;;;;;;;11.61;80.40;99004.57;1770434;79;21268;-58
2022/10/12 08:01:55;;;;;;;11.05;5.87;;;;;;;11.68;79.65;99002.44;1760333;79;20992;-59
2022/10/12 08:04:22;;;;;;;9.48;5.45;;;;;;;11.73;77.94;99005.64;1773646;78;21046;-57
2022/10/12 08:06:49;;;;;;;9.95;5.83;;;;;;;11.76;76.88;98999.17;1791519;79;21035;-57
2022/10/12 08:09:18;;;;;;;9.20;4.87;;;;;;;11.77;75.11;99007.50;1785865;79;21158;-62
2022/10/12 08:11:46;;;;;;;8.53;5.22;;;;;;;11.74;74.53;98995.96;1714433;81;21423;-61
2022/10/12 08:14:14;;;;;;;13.78;5.58;;;;;;;11.73;74.24;99005.08;1703472;83;21004;-59
2022/10/12 08:16:44;;;;;;;13.25;5.60;;;;;;;11.77;74.42;98999.45;1770344;79;21059;-59
2022/10/12 08:19:10;;;;;;;10.63;5.45;;;;;;;11.87;74.17;98999.95;1776950;79;21030;-60
2022/10/12 08:21:41;;;;;;;10.48;5.60;;;;;;;11.95;74.02;98997.50;1791519;78;21561;-61
2022/10/12 08:24:10;;;;;;;11.73;5.47;;;;;;;12.02;73.60;98997.20;1787991;78;21226;-60
2022/10/12 08:26:37;;;;;;;9.68;5.40;;;;;;;12.08;73.18;98998.80;1794573;79;21146;-59
2022/10/12 08:29:05;;;;;;;10.20;5.87;;;;;;;12.14;72.97;99006.55;1790352;79;20900;-60
2022/10/12 08:31:35;;;;;;;12.45;5.37;;;;;;;12.24;72.88;99003.02;1752508;79;21071;-59
2022/10/12 08:34:03;;;;;;;12.37;5.95;;;;;;;12.36;73.20;99009.64;1788692;78;20982;-61
2022/10/12 08:36:32;;;;;;;9.58;5.50;;;;;;;12.53;72.51;99011.19;1788321;79;21237;-61
2022/10/12 08:39:00;;;;;;;9.53;5.15;;;;;;;12.61;72.44;99007.36;1762578;80;20982;-60
2022/10/12 08:42:02;;;;;;;12.78;5.95;;;;;;;12.73;72.01;99007.02;1764393;80;21086;-60
2022/10/12 08:44:46;;;;;;;13.93;6.85;;;;;;;12.86;71.61;99003.14;1774669;79;20951;-63
2022/10/12 08:47:40;;;;;;;10.95;5.53;;;;;;;13.03;71.01;99003.56;1779052;79;21028;-61
2022/10/12 08:50:14;;;;;;;12.75;5.87;;;;;;;13.14;68.74;99006.20;1767892;80;21234;-59
2022/10/12 08:52:45;;;;;;;10.00;5.33;;;;;;;13.08;68.78;99010.00;1789677;79;20931;-61
2022/10/12 08:55:43;;;;;;;11.35;5.45;;;;;;;13.05;67.96;99008.64;1791494;79;21035;-61
2022/10/12 08:58:19;;;;;;;12.05;5.80;;;;;;;13.10;67.92;99009.98;1786611;79;21039;-61
2022/10/12 09:00:50;;;;;;;8.95;6.25;;;;;;;13.17;67.45;99006.42;1792721;79;20911;-60
2022/10/12 09:03:55;;;;;;;11.28;6.62;;;;;;;13.17;66.91;99006.97;1787546;79;21127;-59
2022/10/12 09:06:24;;;;;;;18.10;6.35;;;;;;;13.12;66.49;99001.09;1785965;79;20937;-60
2022/10/12 09:08:59;;;;;;;17.77;6.65;;;;;;;12.98;66.36;98998.22;1784106;79;20972;-60
2022/10/12 09:11:41;;;;;;;;;;;;;;;12.99;67.48;98999.84;1698642;79;21111;-60
2022/10/12 09:14:19;;;;;;;11.90;7.05;;;;;;;13.14;68.06;98998.95;1773153;80;20075;-58
2022/10/12 09:16:49;;;;;;;15.40;7.58;;;;;;;13.27;66.12;98998.27;1782634;79;49471;-60
2022/10/12 09:19:23;;;;;;;18.90;7.83;;;;;;;13.35;66.66;98999.02;1782715;79;21007;-58
2022/10/12 09:21:54;;;;;;;20.60;7.95;;;;;;;13.46;65.90;99004.55;1778911;79;21122;-62
2022/10/12 09:24:26;;;;;;;13.88;8.30;;;;;;;13.53;65.66;99006.37;1776525;79;21076;-59
2022/10/12 09:27:00;;;;;;;12.82;7.05;;;;;;;13.60;65.44;99002.80;1777567;78;21047;-59
2022/10/12 09:29:30;;;;;;;10.28;5.33;;;;;;;13.64;64.37;99006.52;1777593;79;21492;-59
2022/10/12 09:32:48;;;;;;;11.20;5.12;;;;;;;13.68;63.41;98998.69;1711218;82;21526;-59
2022/10/12 09:35:16;;;;;;;8.08;4.30;;;;;;;13.76;64.45;99000.73;1745017;80;20990;-60
2022/10/12 09:37:43;;;;;;;14.75;4.37;;;;;;;13.92;61.61;98997.34;1770754;79;20988;-60
2022/10/12 09:40:20;;;;;;;8.75;4.30;;;;;;;13.94;61.24;98999.20;1777689;79;20982;-59
2022/10/12 09:42:50;;;;;;;9.10;3.77;;;;;;;14.01;60.28;98992.38;1730489;80;21195;-59
2022/10/12 09:45:21;;;;;;;11.65;3.95;;;;;;;14.10;60.29;98989.83;1767027;79;21016;-59
2022/10/12 09:48:25;;;;;;;14.15;4.75;;;;;;;14.25;60.84;98988.27;1767641;79;20967;-59
2022/10/12 09:51:02;;;;;;;9.80;3.72;;;;;;;14.44;60.32;98985.65;1786729;79;21016;-58
2022/10/12 09:53:36;;;;;;;6.03;3.22;;;;;;;14.38;59.93;98987.61;1769241;79;20947;-61
2022/10/12 09:56:11;;;;;;;9.13;3.20;;;;;;;14.15;58.58;98987.89;1777024;79;21259;-59
2022/10/12 09:58:43;;;;;;;6.75;3.20;;;;;;;14.00;57.97;98987.26;1766908;79;20998;-61
2022/10/12 10:01:26;;;;;;;8.33;3.40;;;;;;;13.93;57.74;98990.30;1751613;80;20885;-61
2022/10/12 10:04:10;;;;;;;5.55;2.33;;;;;;;13.92;58.99;98991.95;1782078;79;21055;-60
2022/10/12 10:06:40;;;;;;;6.12;2.35;;;;;;;13.79;55.85;98982.66;1779910;79;20853;-60
2022/10/12 10:09:29;;;;;;;5.30;2.15;;;;;;;13.70;56.37;98989.23;1787319;79;21429;-61
2022/10/12 10:12:18;;;;;;;10.60;2.50;;;;;;;13.81;57.17;98986.41;1743561;81;21007;-61
2022/10/12 10:14:45;;;;;;;6.22;2.47;;;;;;;14.11;56.10;98987.37;1791299;79;21186;-60
2022/10/12 10:17:16;;;;;;;6.75;2.90;;;;;;;14.39;54.46;98987.84;1793396;79;20968;-58
2022/10/12 10:19:49;;;;;;;6.12;2.85;;;;;;;14.51;53.70;98977.43;1785261;79;20952;-60
2022/10/12 10:22:18;;;;;;;3.90;1.85;;;;;;;14.61;55.83;98974.59;1792788;80;21023;-61
2022/10/12 10:24:51;;;;;;;5.55;1.87;;;;;;;14.73;53.95;98976.84;1787708;79;20915;-59
2022/10/12 10:27:32;;;;;;;5.53;1.52;;;;;;;14.65;51.11;98978.88;1790614;79;21401;-61
2022/10/12 10:30:18;;;;;;;4.20;1.67;;;;;;;14.41;48.55;98980.83;1771477;79;21413;-63
2022/10/12 10:32:45;;;;;;;5.55;2.22;;;;;;;14.22;49.70;98980.79;1761988;80;21454;-61
2022/10/12 10:35:20;;;;;;;4.00;1.55;;;;;;;14.13;50.48;98981.96;1794666;79;21214;-59
2022/10/12 10:37:53;;;;;;;3.58;1.70;;;;;;;14.01;50.97;98981.60;1784485;79;20931;-61
2022/10/12 10:40:29;;;;;;;7.10;2.10;;;;;;;13.99;51.89;98985.67;1784904;79;20975;-65
2022/10/12 10:43:03;;;;;;;6.15;2.60;;;;;;;14.14;52.35;98980.08;1786543;79;21591;-62
2022/10/12 10:45:45;;;;;;;5.83;2.33;;;;;;;14.33;51.92;98970.16;1788124;79;21486;-61
2022/10/12 10:48:17;;;;;;;4.08;1.62;;;;;;;14.45;52.07;98973.22;1765457;78;22516;-62
2022/10/12 10:50:52;;;;;;;5.87;2.02;;;;;;;14.55;50.55;98973.08;1776219;79;21450;-64
2022/10/12 10:53:24;;;;;;;5.85;3.08;;;;;;;14.61;51.49;98974.59;1800312;79;20936;-61
2022/10/12 10:56:11;;;;;;;6.85;3.27;;;;;;;14.79;50.51;98970.30;1791417;79;21010;-60
2022/10/12 10:58:58;;;;;;;7.00;3.58;;;;;;;14.88;49.81;98973.38;1786087;79;20982;-61
2022/10/12 11:01:38;;;;;;;8.75;3.60;;;;;;;14.79;49.53;98967.02;1776239;79;21379;-60
2022/10/12 11:04:16;;;;;;;11.55;4.67;;;;;;;14.69;50.08;98965.86;1786577;79;21533;-61
2022/10/12 11:06:46;;;;;;;12.25;4.72;;;;;;;14.71;50.76;98963.66;1780932;79;21546;-59
2022/10/12 11:09:20;;;;;;;8.80;3.10;;;;;;;14.82;51.28;98968.33;1783336;80;20970;-61
2022/10/12 11:11:55;;;;;;;7.65;2.30;;;;;;;14.97;50.97;98964.86;1777809;80;21390;-63
2022/10/12 11:14:26;;;;;;;4.95;2.10;;;;;;;15.15;49.95;98963.74;1782957;79;21114;-63
2022/10/12 11:17:18;;;;;;;3.95;1.95;;;;;;;15.35;50.00;98956.66;1784068;79;21079;-65
2022/10/12 11:20:12;;;;;;;6.03;2.27;;;;;;;15.58;48.75;98951.66;1790419;79;21533;-62
2022/10/12 11:22:56;;;;;;;9.35;2.40;;;;;;;15.72;47.87;98953.27;1799017;79;21023;-63
2022/10/12 11:25:34;;;;;;;6.20;2.62;;;;;;;15.80;47.40;98945.02;1799589;79;21071;-63
2022/10/12 11:28:01;;;;;;;5.42;2.30;;;;;;;15.72;48.29;98944.35;1782862;79;21176;-63
2022/10/12 11:30:31;;;;;;;6.80;2.27;;;;;;;15.49;47.83;98946.70;1787485;79;20997;-61
2022/10/12 11:33:07;;;;;;;7.12;2.62;;;;;;;15.24;47.71;98943.09;1783925;79;21044;-59
2022/10/12 11:35:36;;;;;;;6.05;2.25;;;;;;;15.12;47.70;98940.84;1787502;79;20961;-60
2022/10/12 11:38:30;;;;;;;3.95;1.95;;;;;;;15.17;47.99;98939.98;1798800;79;21010;-63
2022/10/12 11:41:10;;;;;;;4.97;2.20;;;;;;;15.37;48.33;98943.66;1757487;80;21276;-63
2022/10/12 11:44:08;;;;;;;4.37;1.90;;;;;;;15.50;46.95;98944.23;1725087;81;21070;-60
2022/10/12 11:46:50;;;;;;;5.87;2.17;;;;;;;15.48;46.36;98942.39;1746362;81;20913;-60
2022/10/12 11:49:38;;;;;;;5.25;1.85;;;;;;;15.44;46.61;98940.02;1670903;82;21030;-60
2022/10/12 11:52:09;;;;;;;8.10;2.25;;;;;;;15.48;47.48;98942.39;1722823;82;21192;-60
2022/10/12 11:54:57;;;;;;;5.50;2.05;;;;;;;15.65;47.23;98945.30;1797040;78;21179;-60